Time;durP1;ratioP1;P1;durP2;ratioP2;P2;SDS_P1;SDS_P2;PMS_P1;PMS_P2;Temp;Humidity;BMP_temperature;BMP_pressure;BME280_temperature;BME280_humidity;BME280_pressure;Samples;Min_cycle;Max_cycle;Signal;HPM_P1;HPM_P2
2022/05/28 00:00:26;;;;;;;;;;;12.30;99.90;;;;;;5091374;28;19916;-66
2022/05/28 00:02:52;;;;;;;;;;;12.30;99.90;;;;;;5091966;28;19920;-67
2022/05/28 00:05:17;;;;;;;;;;;12.30;99.90;;;;;;5091568;28;19997;-66
2022/05/28 00:07:43;;;;;;;;;;;12.30;99.90;;;;;;5091122;28;19916;-66
2022/05/28 00:10:13;;;;;;;;;;;12.30;99.90;;;;;;5090649;28;19916;-66
2022/05/28 00:12:38;;;;;;;;;;;12.40;99.90;;;;;;5091164;28;19916;-66
2022/05/28 00:15:05;;;;;;;;;;;12.40;99.90;;;;;;5091239;28;20027;-66
2022/05/28 00:17:30;;;;;;;;;;;12.50;99.90;;;;;;5091115;28;19920;-66
2022/05/28 00:19:56;;;;;;;;;;;12.40;99.90;;;;;;5090639;28;19920;-66
2022/05/28 00:22:21;;;;;;;;;;;12.40;99.90;;;;;;5090877;28;19919;-66
2022/05/28 00:24:47;;;;;;;;;;;12.40;99.90;;;;;;5090738;28;20287;-66
2022/05/28 00:27:12;;;;;;;;;;;12.30;99.90;;;;;;5091047;28;20273;-66
2022/05/28 00:29:37;;;;;;;;;;;12.30;99.90;;;;;;5090676;28;19920;-66
2022/05/28 00:32:03;;;;;;;;;;;12.40;99.90;;;;;;5090773;28;20007;-66
2022/05/28 00:34:29;;;;;;;;;;;12.30;99.90;;;;;;5090681;28;19923;-66
2022/05/28 00:36:55;;;;;;;;;;;12.40;99.90;;;;;;5090906;28;19942;-66
2022/05/28 00:39:20;;;;;;;;;;;12.40;99.90;;;;;;5090462;28;19928;-66
2022/05/28 00:41:46;;;;;;;;;;;12.40;99.90;;;;;;5090854;28;20097;-66
2022/05/28 00:44:12;;;;;;;;;;;12.30;99.90;;;;;;5094236;28;19916;-66
2022/05/28 00:46:41;;;;;;;;;;;12.30;99.90;;;;;;5094404;28;19970;-66
2022/05/28 00:49:08;;;;;;;;;;;12.20;99.90;;;;;;5094209;28;19916;-66
2022/05/28 00:51:38;;;;;;;;;;;12.20;99.90;;;;;;5094350;28;19916;-66
2022/05/28 00:54:04;;;;;;;;;;;12.10;99.90;;;;;;5094243;28;19949;-66
2022/05/28 00:56:30;;;;;;;;;;;12.10;99.90;;;;;;5094452;28;20010;-66
2022/05/28 00:58:56;;;;;;;;;;;12.00;99.90;;;;;;5093935;28;19959;-66
2022/05/28 01:01:25;;;;;;;;;;;12.00;99.90;;;;;;5094210;28;19961;-66
2022/05/28 01:04:02;;;;;;;;;;;12.00;99.90;;;;;;5094255;28;19920;-66
2022/05/28 01:06:33;;;;;;;;;;;12.00;99.90;;;;;;5093985;28;19932;-66
2022/05/28 01:08:58;;;;;;;;;;;11.90;99.90;;;;;;5094039;28;19919;-66
2022/05/28 01:11:36;;;;;;;;;;;11.90;99.90;;;;;;5093793;28;19922;-66
2022/05/28 01:14:01;;;;;;;;;;;11.80;99.90;;;;;;5093912;28;19916;-66
2022/05/28 01:16:27;;;;;;;;;;;11.80;99.90;;;;;;5093862;28;20309;-66
2022/05/28 01:19:01;;;;;;;;;;;11.70;99.90;;;;;;5093372;28;19920;-66
2022/05/28 01:21:27;;;;;;;;;;;11.80;99.90;;;;;;5093889;28;19998;-66
2022/05/28 01:24:00;;;;;;;;;;;11.70;99.90;;;;;;5093884;28;20003;-66
2022/05/28 01:26:35;;;;;;;;;;;11.70;99.90;;;;;;5094029;28;19920;-66
2022/05/28 01:29:04;;;;;;;;;;;11.70;99.90;;;;;;5094171;28;19922;-67
2022/05/28 01:31:31;;;;;;;;;;;11.80;99.90;;;;;;5094285;28;19916;-67
2022/05/28 01:33:58;;;;;;;;;;;11.70;99.90;;;;;;5094567;28;19916;-67
2022/05/28 01:36:24;;;;;;;;;;;11.70;99.90;;;;;;5094583;28;19916;-67
2022/05/28 01:38:50;;;;;;;;;;;11.60;99.90;;;;;;5093709;28;20343;-67
2022/05/28 01:41:17;;;;;;;;;;;11.60;99.90;;;;;;5094141;28;20336;-66
2022/05/28 01:43:43;;;;;;;;;;;11.60;99.90;;;;;;5093811;28;19916;-67
2022/05/28 01:46:11;;;;;;;;;;;11.60;99.90;;;;;;5093419;28;20429;-66
2022/05/28 01:48:37;;;;;;;;;;;11.60;99.90;;;;;;5093108;28;19916;-67
2022/05/28 01:51:03;;;;;;;;;;;11.50;99.90;;;;;;5093144;28;19923;-66
2022/05/28 01:56:14;;;;;;;;;;;11.50;99.90;;;;;;5092786;28;19916;-66
2022/05/28 01:58:39;;;;;;;;;;;11.50;99.90;;;;;;5092493;28;19928;-67
2022/05/28 02:01:06;;;;;;;;;;;11.40;99.90;;;;;;5092800;28;19962;-66
2022/05/28 02:03:33;;;;;;;;;;;11.40;99.90;;;;;;5093125;28;19959;-66
2022/05/28 02:05:59;;;;;;;;;;;11.40;99.90;;;;;;5092932;28;20056;-66
2022/05/28 02:08:27;;;;;;;;;;;11.30;99.90;;;;;;5092672;28;20011;-66
2022/05/28 02:10:59;;;;;;;;;;;11.40;99.90;;;;;;5092788;28;19916;-66
2022/05/28 02:13:29;;;;;;;;;;;11.40;99.90;;;;;;5092932;28;19923;-66
2022/05/28 02:15:58;;;;;;;;;;;11.30;99.90;;;;;;5092875;28;19922;-66
2022/05/28 02:18:42;;;;;;;;;;;11.30;99.90;;;;;;5092528;28;20315;-66
2022/05/28 02:21:16;;;;;;;;;;;11.20;99.90;;;;;;5092562;28;19916;-66
2022/05/28 02:23:49;;;;;;;;;;;11.30;99.90;;;;;;5092401;28;19916;-66
2022/05/28 02:26:18;;;;;;;;;;;11.20;99.90;;;;;;5092648;28;19917;-66
2022/05/28 02:28:45;;;;;;;;;;;11.10;99.90;;;;;;5092297;28;20268;-66
2022/05/28 02:31:12;;;;;;;;;;;11.10;99.90;;;;;;5092456;28;19923;-66
2022/05/28 02:33:37;;;;;;;;;;;11.00;99.90;;;;;;5092436;28;19922;-67
2022/05/28 02:36:03;;;;;;;;;;;11.10;99.90;;;;;;5092096;28;20379;-66
2022/05/28 02:38:30;;;;;;;;;;;11.10;99.90;;;;;;5092112;28;20364;-66
2022/05/28 02:40:55;;;;;;;;;;;11.00;99.90;;;;;;5092313;28;19920;-66
2022/05/28 02:43:24;;;;;;;;;;;11.00;99.90;;;;;;5092230;28;19938;-66
2022/05/28 02:45:49;;;;;;;;;;;11.10;99.90;;;;;;5092169;28;19916;-66
2022/05/28 02:48:15;;;;;;;;;;;11.00;99.90;;;;;;5092128;28;19919;-66
2022/05/28 02:50:40;;;;;;;;;;;11.00;99.90;;;;;;5091520;28;19965;-67
2022/05/28 02:53:06;;;;;;;;;;;11.10;99.90;;;;;;5092127;28;19923;-66
2022/05/28 02:55:32;;;;;;;;;;;11.00;99.90;;;;;;5092079;28;19923;-66
2022/05/28 02:57:57;;;;;;;;;;;11.00;99.90;;;;;;5091874;28;19916;-66
2022/05/28 03:00:23;;;;;;;;;;;11.00;99.90;;;;;;5091408;28;19916;-66
2022/05/28 03:02:48;;;;;;;;;;;11.00;99.90;;;;;;5091823;28;19920;-66
2022/05/28 03:05:15;;;;;;;;;;;10.90;99.90;;;;;;5091394;28;19916;-66
2022/05/28 03:07:40;;;;;;;;;;;10.90;99.90;;;;;;5091868;28;19920;-66
2022/05/28 03:10:06;;;;;;;;;;;11.00;99.90;;;;;;5091519;28;19923;-66
2022/05/28 03:12:31;;;;;;;;;;;11.00;99.90;;;;;;5091637;28;19916;-66
2022/05/28 03:14:57;;;;;;;;;;;10.90;99.90;;;;;;5091636;28;19916;-66
2022/05/28 03:17:22;;;;;;;;;;;10.80;99.90;;;;;;5091085;28;20294;-66
2022/05/28 03:19:48;;;;;;;;;;;10.80;99.90;;;;;;5087824;28;19947;-66
2022/05/28 03:22:14;;;;;;;;;;;10.80;99.90;;;;;;5088777;28;19920;-66
2022/05/28 03:24:39;;;;;;;;;;;10.80;99.90;;;;;;5089456;28;20330;-66
2022/05/28 03:27:05;;;;;;;;;;;10.80;99.90;;;;;;5091532;28;19955;-66
2022/05/28 03:29:30;;;;;;;;;;;10.90;99.90;;;;;;5090661;28;19927;-66
2022/05/28 03:31:56;;;;;;;;;;;10.90;99.90;;;;;;5091084;28;20002;-66
2022/05/28 03:34:21;;;;;;;;;;;10.80;99.90;;;;;;5090375;28;20368;-66
2022/05/28 03:36:47;;;;;;;;;;;10.80;99.90;;;;;;5090184;28;19916;-66
2022/05/28 03:39:12;;;;;;;;;;;10.70;99.90;;;;;;5089995;28;19927;-66
2022/05/28 03:41:37;;;;;;;;;;;10.60;99.90;;;;;;5091304;28;19916;-66
2022/05/28 03:44:03;;;;;;;;;;;10.70;99.90;;;;;;5091356;28;19916;-66
2022/05/28 03:46:30;;;;;;;;;;;10.70;99.90;;;;;;5091340;28;20276;-67
2022/05/28 03:48:59;;;;;;;;;;;10.70;99.90;;;;;;5090875;28;19924;-66
2022/05/28 03:51:25;;;;;;;;;;;10.70;99.90;;;;;;5091409;28;19916;-66
2022/05/28 03:53:51;;;;;;;;;;;10.70;99.90;;;;;;5091388;28;19920;-66
2022/05/28 03:56:16;;;;;;;;;;;10.60;99.90;;;;;;5091362;28;19916;-66
2022/05/28 03:58:42;;;;;;;;;;;10.70;99.90;;;;;;5090845;28;19946;-66
2022/05/28 04:01:07;;;;;;;;;;;10.70;99.90;;;;;;5090851;28;19973;-66
2022/05/28 04:03:35;;;;;;;;;;;10.70;99.90;;;;;;5090966;28;19982;-66
2022/05/28 04:06:01;;;;;;;;;;;10.70;99.90;;;;;;5091254;28;19919;-66
2022/05/28 04:08:27;;;;;;;;;;;10.60;99.90;;;;;;5090713;28;19959;-66
2022/05/28 04:10:53;;;;;;;;;;;10.60;99.90;;;;;;5090958;28;19959;-65
2022/05/28 04:13:19;;;;;;;;;;;10.60;99.90;;;;;;5091063;28;19965;-66
2022/05/28 04:15:44;;;;;;;;;;;10.60;99.90;;;;;;5091030;28;20407;-66
2022/05/28 04:18:11;;;;;;;;;;;10.60;99.90;;;;;;5092789;28;19976;-66
2022/05/28 04:20:37;;;;;;;;;;;10.60;99.90;;;;;;5094656;28;20445;-66
2022/05/28 04:23:02;;;;;;;;;;;10.70;99.90;;;;;;5094991;28;19915;-66
2022/05/28 04:25:28;;;;;;;;;;;10.80;99.90;;;;;;5094874;28;19920;-66
2022/05/28 04:27:53;;;;;;;;;;;10.80;99.90;;;;;;5094892;28;19923;-66
2022/05/28 04:30:18;;;;;;;;;;;10.80;99.90;;;;;;5094407;28;20388;-66
2022/05/28 04:32:44;;;;;;;;;;;11.00;99.90;;;;;;5094588;28;20352;-66
2022/05/28 04:35:10;;;;;;;;;;;11.00;99.90;;;;;;5094777;28;19924;-66
2022/05/28 04:37:35;;;;;;;;;;;10.90;99.90;;;;;;5094559;28;19927;-66
2022/05/28 04:40:01;;;;;;;;;;;10.90;99.90;;;;;;5093954;28;19920;-66
2022/05/28 04:42:26;;;;;;;;;;;11.10;99.90;;;;;;5094561;28;19916;-66
2022/05/28 04:44:51;;;;;;;;;;;11.30;99.90;;;;;;5094453;28;20397;-66
2022/05/28 04:47:17;;;;;;;;;;;11.60;99.90;;;;;;5094332;28;19916;-66
2022/05/28 04:49:42;;;;;;;;;;;11.70;99.90;;;;;;5094301;28;21028;-66
2022/05/28 04:52:08;;;;;;;;;;;11.80;99.90;;;;;;5094171;28;20019;-66
2022/05/28 04:54:33;;;;;;;;;;;11.90;99.90;;;;;;5094392;28;19969;-67
2022/05/28 04:56:59;;;;;;;;;;;12.10;99.90;;;;;;5094271;28;19982;-66
2022/05/28 04:59:24;;;;;;;;;;;12.30;99.90;;;;;;5093649;28;19920;-66
2022/05/28 05:01:50;;;;;;;;;;;12.40;99.90;;;;;;5093892;28;20407;-66
2022/05/28 05:04:16;;;;;;;;;;;12.50;99.90;;;;;;5093932;28;20269;-67
2022/05/28 05:06:41;;;;;;;;;;;12.50;99.90;;;;;;5094215;28;19916;-66
2022/05/28 05:09:07;;;;;;;;;;;12.70;99.90;;;;;;5093798;28;19923;-66
2022/05/28 05:11:32;;;;;;;;;;;12.40;99.90;;;;;;5093921;28;19915;-67
2022/05/28 05:13:58;;;;;;;;;;;12.40;99.90;;;;;;5093887;28;20292;-67
2022/05/28 05:16:23;;;;;;;;;;;12.30;99.90;;;;;;5093810;28;19958;-66
2022/05/28 05:18:49;;;;;;;;;;;12.30;99.90;;;;;;5093380;28;19924;-66
2022/05/28 05:21:14;;;;;;;;;;;12.30;99.90;;;;;;5093785;28;20233;-67
2022/05/28 05:23:40;;;;;;;;;;;12.30;99.90;;;;;;5093620;28;19927;-66
2022/05/28 05:26:13;;;;;;;;;;;12.60;99.90;;;;;;5093653;28;20416;-66
2022/05/28 05:28:39;;;;;;;;;;;12.70;99.90;;;;;;5092530;28;20308;-67
2022/05/28 05:31:04;;;;;;;;;;;12.50;99.90;;;;;;5093004;28;19916;-66
2022/05/28 05:33:30;;;;;;;;;;;12.40;99.90;;;;;;5093793;28;19925;-66
2022/05/28 05:35:55;;;;;;;;;;;12.40;99.90;;;;;;5093685;28;19943;-66
2022/05/28 05:38:20;;;;;;;;;;;12.60;99.90;;;;;;5093146;28;19963;-67
2022/05/28 05:40:46;;;;;;;;;;;12.90;99.90;;;;;;5093281;28;19920;-66
2022/05/28 05:43:11;;;;;;;;;;;12.90;99.90;;;;;;5093326;28;20343;-66
2022/05/28 05:45:38;;;;;;;;;;;12.70;99.90;;;;;;5093228;28;19916;-66
2022/05/28 05:48:04;;;;;;;;;;;12.60;99.90;;;;;;5093426;28;19916;-66
2022/05/28 05:50:29;;;;;;;;;;;12.60;99.90;;;;;;5093048;28;20462;-67
2022/05/28 05:52:54;;;;;;;;;;;12.50;99.90;;;;;;5093239;28;19919;-66
2022/05/28 05:55:20;;;;;;;;;;;12.50;99.90;;;;;;5093206;28;19920;-66
2022/05/28 05:57:45;;;;;;;;;;;12.40;99.90;;;;;;5093145;28;19920;-66
2022/05/28 06:00:11;;;;;;;;;;;12.40;99.90;;;;;;5092312;28;19920;-66
2022/05/28 06:02:37;;;;;;;;;;;12.50;99.90;;;;;;5093190;28;19920;-67
2022/05/28 06:05:02;;;;;;;;;;;12.60;99.90;;;;;;5092813;28;19916;-66
2022/05/28 06:07:27;;;;;;;;;;;12.60;99.90;;;;;;5093039;28;20056;-66
2022/05/28 06:09:53;;;;;;;;;;;12.40;99.90;;;;;;5092561;28;19972;-67
2022/05/28 06:12:18;;;;;;;;;;;12.50;99.90;;;;;;5092915;28;19927;-66
2022/05/28 06:14:44;;;;;;;;;;;12.50;99.90;;;;;;5092762;28;20320;-66
2022/05/28 06:17:10;;;;;;;;;;;12.60;99.90;;;;;;5092619;28;19931;-66
2022/05/28 06:19:35;;;;;;;;;;;12.70;99.90;;;;;;5092502;28;20296;-66
2022/05/28 06:22:01;;;;;;;;;;;12.70;99.90;;;;;;5092643;28;20001;-66
2022/05/28 06:24:27;;;;;;;;;;;12.70;99.90;;;;;;5092694;28;19924;-67
2022/05/28 06:26:53;;;;;;;;;;;12.70;99.90;;;;;;5092600;28;19916;-66
2022/05/28 06:29:18;;;;;;;;;;;12.80;99.90;;;;;;5092214;28;19920;-67
2022/05/28 06:31:43;;;;;;;;;;;12.80;99.90;;;;;;5092577;28;19916;-66
2022/05/28 06:34:09;;;;;;;;;;;12.90;99.90;;;;;;5092507;28;19955;-66
2022/05/28 06:36:34;;;;;;;;;;;12.90;99.90;;;;;;5092234;28;19989;-66
2022/05/28 06:39:00;;;;;;;;;;;12.90;99.90;;;;;;5091783;28;20007;-67
2022/05/28 06:41:25;;;;;;;;;;;12.90;99.90;;;;;;5091805;28;19955;-66
2022/05/28 06:43:51;;;;;;;;;;;12.90;99.90;;;;;;5092232;28;19923;-66
2022/05/28 06:46:17;;;;;;;;;;;12.90;99.90;;;;;;5092164;28;19919;-66
2022/05/28 06:48:42;;;;;;;;;;;13.00;99.90;;;;;;5092007;28;19916;-66
2022/05/28 06:51:08;;;;;;;;;;;13.00;99.90;;;;;;5092173;28;20268;-66
2022/05/28 06:53:37;;;;;;;;;;;13.10;99.90;;;;;;5092116;28;20386;-66
2022/05/28 06:56:04;;;;;;;;;;;13.40;99.90;;;;;;5092081;28;19916;-67
2022/05/28 06:58:29;;;;;;;;;;;13.50;99.90;;;;;;5091565;28;19927;-66
2022/05/28 07:00:55;;;;;;;;;;;13.60;99.90;;;;;;5091776;28;19923;-66
2022/05/28 07:03:22;;;;;;;;;;;13.80;99.90;;;;;;5092058;28;19920;-66
2022/05/28 07:05:47;;;;;;;;;;;13.70;99.90;;;;;;5091699;28;19916;-67
2022/05/28 07:08:13;;;;;;;;;;;13.70;99.90;;;;;;5091793;28;19916;-66
2022/05/28 07:10:45;;;;;;;;;;;13.60;99.90;;;;;;5091437;28;19920;-66
2022/05/28 07:13:11;;;;;;;;;;;13.80;99.90;;;;;;5091697;28;19920;-66
2022/05/28 07:15:37;;;;;;;;;;;13.80;99.90;;;;;;5091899;28;19923;-67
2022/05/28 07:18:03;;;;;;;;;;;13.80;99.90;;;;;;5091710;28;19916;-66
2022/05/28 07:20:28;;;;;;;;;;;13.80;99.90;;;;;;5091504;28;20372;-66
2022/05/28 07:22:53;;;;;;;;;;;13.80;99.90;;;;;;5091611;28;19916;-66
2022/05/28 07:25:19;;;;;;;;;;;13.70;99.90;;;;;;5091646;28;19946;-66
2022/05/28 07:27:45;;;;;;;;;;;13.70;99.90;;;;;;5091557;28;19920;-66
2022/05/28 07:30:10;;;;;;;;;;;13.60;99.90;;;;;;5091333;28;19924;-66
2022/05/28 07:32:36;;;;;;;;;;;13.60;99.90;;;;;;5091670;28;20365;-66
2022/05/28 07:35:01;;;;;;;;;;;13.30;99.90;;;;;;5091454;28;19967;-66
2022/05/28 07:37:30;;;;;;;;;;;13.10;99.90;;;;;;5091422;28;19916;-66
2022/05/28 07:39:56;;;;;;;;;;;13.10;99.90;;;;;;5090965;28;20014;-66
2022/05/28 07:42:22;;;;;;;;;;;13.10;99.90;;;;;;5091265;28;19923;-67
2022/05/28 07:44:47;;;;;;;;;;;13.00;99.90;;;;;;5091547;28;19916;-66
2022/05/28 07:47:13;;;;;;;;;;;13.00;99.90;;;;;;5091229;28;20056;-66
2022/05/28 07:49:39;;;;;;;;;;;12.90;99.90;;;;;;5090986;28;19920;-66
2022/05/28 07:52:04;;;;;;;;;;;12.70;99.90;;;;;;5091359;28;19923;-66
2022/05/28 07:54:30;;;;;;;;;;;12.70;99.90;;;;;;5095506;28;20005;-66
2022/05/28 07:56:55;;;;;;;;;;;12.60;99.90;;;;;;5095356;28;20376;-66
2022/05/28 07:59:21;;;;;;;;;;;12.60;99.90;;;;;;5095073;28;20006;-66
2022/05/28 08:01:46;;;;;;;;;;;12.50;99.90;;;;;;5095326;28;19919;-66
2022/05/28 08:04:13;;;;;;;;;;;12.50;99.90;;;;;;5095227;28;20383;-66
2022/05/28 08:06:39;;;;;;;;;;;12.40;99.90;;;;;;5095263;28;19927;-65
2022/05/28 08:09:05;;;;;;;;;;;12.50;99.90;;;;;;5094949;28;19999;-66
2022/05/28 08:11:31;;;;;;;;;;;12.50;99.90;;;;;;5095003;28;19927;-66
2022/05/28 08:13:57;;;;;;;;;;;12.60;99.90;;;;;;5095354;28;19916;-66
2022/05/28 08:16:23;;;;;;;;;;;12.70;99.90;;;;;;5095217;28;20032;-66
2022/05/28 08:18:49;;;;;;;;;;;12.80;99.90;;;;;;5094745;28;20026;-66
2022/05/28 08:23:58;;;;;;;;;;;13.10;99.90;;;;;;5094842;28;19920;-66
2022/05/28 08:26:24;;;;;;;;;;;13.10;99.90;;;;;;5094795;28;19916;-66
2022/05/28 08:28:51;;;;;;;;;;;13.30;99.90;;;;;;5094532;28;20376;-66
2022/05/28 08:31:17;;;;;;;;;;;13.60;99.90;;;;;;5094803;28;20295;-66
2022/05/28 08:33:43;;;;;;;;;;;13.60;99.90;;;;;;5094789;28;19916;-66
2022/05/28 08:36:09;;;;;;;;;;;13.80;99.90;;;;;;5094627;28;19920;-66
2022/05/28 08:38:34;;;;;;;;;;;13.90;99.90;;;;;;5094172;28;19920;-66
2022/05/28 08:41:06;;;;;;;;;;;13.90;99.90;;;;;;5094684;28;19920;-66
2022/05/28 08:43:33;;;;;;;;;;;13.90;99.90;;;;;;5094673;28;19916;-67
2022/05/28 08:45:59;;;;;;;;;;;14.00;99.90;;;;;;5094658;28;19920;-66
2022/05/28 08:48:31;;;;;;;;;;;13.90;99.90;;;;;;5094409;28;20284;-67
2022/05/28 08:51:00;;;;;;;;;;;13.90;99.90;;;;;;5094211;28;19916;-67
2022/05/28 08:53:27;;;;;;;;;;;13.90;99.90;;;;;;5094585;28;19963;-67
2022/05/28 08:55:53;;;;;;;;;;;13.80;99.90;;;;;;5094560;28;19916;-67
2022/05/28 08:58:26;;;;;;;;;;;13.90;99.90;;;;;;5094056;28;20396;-67
2022/05/28 09:01:13;;;;;;;;;;;14.00;99.90;;;;;;5094072;28;19916;-67
2022/05/28 09:03:54;;;;;;;;;;;14.30;99.90;;;;;;5093814;28;20398;-67
2022/05/28 09:06:38;;;;;;;;;;;14.20;99.90;;;;;;5094312;28;19920;-67
2022/05/28 09:09:04;;;;;;;;;;;14.20;99.90;;;;;;5093825;28;20256;-67
2022/05/28 09:11:35;;;;;;;;;;;14.30;99.90;;;;;;5094035;28;19916;-67
2022/05/28 09:14:11;;;;;;;;;;;14.40;99.90;;;;;;5093798;28;19920;-66
2022/05/28 09:16:37;;;;;;;;;;;14.40;99.90;;;;;;5094106;28;19968;-67
2022/05/28 09:19:04;;;;;;;;;;;14.10;99.90;;;;;;5093665;28;20015;-66
2022/05/28 09:21:30;;;;;;;;;;;14.10;99.90;;;;;;5093888;28;19916;-67
2022/05/28 09:24:03;;;;;;;;;;;14.10;99.90;;;;;;5093846;28;19926;-67
2022/05/28 09:26:35;;;;;;;;;;;14.10;99.90;;;;;;5093979;28;20000;-67
2022/05/28 09:29:07;;;;;;;;;;;14.10;99.90;;;;;;5093526;28;19920;-66
2022/05/28 09:31:43;;;;;;;;;;;14.10;99.90;;;;;;5094003;28;19915;-67
2022/05/28 09:34:12;;;;;;;;;;;14.20;99.90;;;;;;5093614;28;19932;-67
2022/05/28 09:36:46;;;;;;;;;;;14.30;99.90;;;;;;5093555;28;20340;-66
2022/05/28 09:39:12;;;;;;;;;;;14.40;99.90;;;;;;5093003;28;19924;-67
2022/05/28 09:41:59;;;;;;;;;;;14.50;99.90;;;;;;5093557;28;20369;-67
2022/05/28 09:44:25;;;;;;;;;;;14.50;99.90;;;;;;5093460;28;19915;-66
2022/05/28 09:46:50;;;;;;;;;;;14.40;99.90;;;;;;5093325;28;19935;-66
2022/05/28 09:49:16;;;;;;;;;;;14.60;99.90;;;;;;5092912;28;19916;-67
2022/05/28 09:52:00;;;;;;;;;;;14.70;99.90;;;;;;5093090;28;19920;-66
2022/05/28 09:54:30;;;;;;;;;;;14.60;99.90;;;;;;5093321;28;20296;-66
2022/05/28 09:56:57;;;;;;;;;;;14.70;99.90;;;;;;5093207;28;20383;-67
2022/05/28 09:59:29;;;;;;;;;;;14.80;99.90;;;;;;5092602;28;20003;-67
2022/05/28 10:02:13;;;;;;;;;;;14.90;99.90;;;;;;5092896;28;20435;-66
2022/05/28 10:04:46;;;;;;;;;;;14.90;99.90;;;;;;5093006;28;19920;-67
2022/05/28 10:07:11;;;;;;;;;;;15.00;99.90;;;;;;5093065;28;20295;-66
2022/05/28 10:09:47;;;;;;;;;;;15.10;99.90;;;;;;5092670;28;19916;-67
2022/05/28 10:12:14;;;;;;;;;;;15.10;99.90;;;;;;5091852;28;20338;-66
2022/05/28 10:14:40;;;;;;;;;;;15.10;99.90;;;;;;5092687;28;19916;-67
2022/05/28 10:17:05;;;;;;;;;;;15.00;99.90;;;;;;5092520;28;19920;-66
2022/05/28 10:19:31;;;;;;;;;;;15.00;99.90;;;;;;5092449;28;20277;-67
2022/05/28 10:21:57;;;;;;;;;;;14.90;99.90;;;;;;5092607;28;20368;-66
2022/05/28 10:24:24;;;;;;;;;;;14.90;99.90;;;;;;5092662;28;19916;-67
2022/05/28 10:26:52;;;;;;;;;;;14.90;99.90;;;;;;5092528;28;19916;-67
2022/05/28 10:29:20;;;;;;;;;;;14.60;99.90;;;;;;5092210;28;19920;-67
2022/05/28 10:31:47;;;;;;;;;;;14.60;99.90;;;;;;5092564;28;19920;-66
2022/05/28 10:34:28;;;;;;;;;;;14.40;99.90;;;;;;5092479;28;19916;-67
2022/05/28 10:37:04;;;;;;;;;;;14.50;99.90;;;;;;5092429;28;20289;-67
2022/05/28 10:39:29;;;;;;;;;;;14.40;99.90;;;;;;5091908;28;19920;-67
2022/05/28 10:41:54;;;;;;;;;;;14.50;99.90;;;;;;5092368;28;19916;-66
2022/05/28 10:44:20;;;;;;;;;;;14.50;99.90;;;;;;5092365;28;19920;-67
2022/05/28 10:46:57;;;;;;;;;;;14.80;99.90;;;;;;5092230;28;19920;-66
2022/05/28 10:49:38;;;;;;;;;;;15.00;99.90;;;;;;5091883;28;19939;-67
2022/05/28 10:52:06;;;;;;;;;;;15.00;99.90;;;;;;5091824;28;20314;-67
2022/05/28 10:54:48;;;;;;;;;;;15.10;99.90;;;;;;5091970;28;20368;-66
2022/05/28 10:57:17;;;;;;;;;;;15.10;99.90;;;;;;5091947;28;20440;-66
2022/05/28 10:59:42;;;;;;;;;;;15.20;99.90;;;;;;5091576;28;19928;-67
2022/05/28 11:02:13;;;;;;;;;;;15.20;99.90;;;;;;5092375;28;20424;-67
2022/05/28 11:05:01;;;;;;;;;;;14.90;99.90;;;;;;5091971;28;19959;-67
2022/05/28 11:07:26;;;;;;;;;;;14.80;99.90;;;;;;5092489;28;19938;-67
2022/05/28 11:09:52;;;;;;;;;;;14.60;99.90;;;;;;5091821;28;20368;-67
2022/05/28 11:12:40;;;;;;;;;;;14.60;99.90;;;;;;5092106;28;20443;-67
2022/05/28 11:15:11;;;;;;;;;;;14.50;99.90;;;;;;5053458;28;19927;-67
2022/05/28 11:17:45;;;;;;;;;;;14.60;99.90;;;;;;5091897;28;19916;-66
2022/05/28 11:20:11;;;;;;;;;;;14.70;99.90;;;;;;5091352;28;19930;-66
2022/05/28 11:22:39;;;;;;;;;;;14.70;99.90;;;;;;5091551;28;20010;-67
2022/05/28 11:25:19;;;;;;;;;;;14.70;99.90;;;;;;5091527;28;19916;-66
2022/05/28 11:27:54;;;;;;;;;;;14.60;99.90;;;;;;5091513;28;19916;-67
2022/05/28 11:30:30;;;;;;;;;;;14.70;99.90;;;;;;5091407;28;19919;-66
2022/05/28 11:32:58;;;;;;;;;;;14.70;99.90;;;;;;5091603;28;19916;-67
2022/05/28 11:35:46;;;;;;;;;;;14.60;99.90;;;;;;5091403;28;19923;-66
2022/05/28 11:38:15;;;;;;;;;;;15.00;99.90;;;;;;5091503;28;19920;-67
2022/05/28 11:40:49;;;;;;;;;;;14.90;99.90;;;;;;5091159;28;19974;-67
2022/05/28 11:43:40;;;;;;;;;;;15.00;99.90;;;;;;5091386;28;19961;-67
2022/05/28 11:46:06;;;;;;;;;;;15.10;99.90;;;;;;5091282;28;19943;-66
2022/05/28 11:51:28;;;;;;;;;;;15.30;99.90;;;;;;5091393;28;19915;-67
2022/05/28 11:54:03;;;;;;;;;;;15.30;99.90;;;;;;5091383;28;19923;-67
2022/05/28 11:56:29;;;;;;;;;;;15.40;99.90;;;;;;5091179;28;19967;-66
2022/05/28 11:58:57;;;;;;;;;;;15.30;99.90;;;;;;5090934;28;19966;-67
2022/05/28 12:01:28;;;;;;;;;;;15.40;99.90;;;;;;5091268;28;20010;-67
2022/05/28 12:03:53;;;;;;;;;;;15.30;99.90;;;;;;5091307;28;19922;-67
2022/05/28 12:06:27;;;;;;;;;;;15.30;99.90;;;;;;5091178;28;20018;-67
2022/05/28 12:09:11;;;;;;;;;;;15.30;99.90;;;;;;5090849;28;19916;-66
2022/05/28 12:11:42;;;;;;;;;;;15.50;99.90;;;;;;5091211;28;19938;-67
2022/05/28 12:14:28;;;;;;;;;;;15.50;99.90;;;;;;5091217;28;20006;-67
2022/05/28 12:16:59;;;;;;;;;;;15.70;99.90;;;;;;5090469;28;20291;-67
2022/05/28 12:19:25;;;;;;;;;;;15.70;99.90;;;;;;5090618;28;19920;-66
2022/05/28 12:21:50;;;;;;;;;;;15.90;99.90;;;;;;5091171;28;19942;-67
2022/05/28 12:24:19;;;;;;;;;;;15.80;99.90;;;;;;5091131;28;19915;-67
2022/05/28 12:27:11;;;;;;;;;;;15.90;99.90;;;;;;5091119;28;19948;-66
2022/05/28 12:29:47;;;;;;;;;;;16.00;99.90;;;;;;5090777;28;20420;-66
2022/05/28 12:32:18;;;;;;;;;;;15.90;99.90;;;;;;5091114;28;19959;-67
2022/05/28 12:35:13;;;;;;;;;;;16.00;99.90;;;;;;5090955;28;19916;-67
2022/05/28 12:37:45;;;;;;;;;;;15.90;99.90;;;;;;5018325;28;19928;-67
2022/05/28 12:40:33;;;;;;;;;;;15.90;99.90;;;;;;5093875;28;19924;-66
2022/05/28 12:43:31;;;;;;;;;;;15.70;99.90;;;;;;5094558;28;19935;-67
2022/05/28 12:45:57;;;;;;;;;;;15.70;99.90;;;;;;5012124;28;19936;-66
2022/05/28 12:48:25;;;;;;;;;;;15.60;99.90;;;;;;5011993;28;20440;-66
2022/05/28 12:51:09;;;;;;;;;;;15.60;99.90;;;;;;5012019;28;20313;-67
2022/05/28 12:53:46;;;;;;;;;;;15.80;99.90;;;;;;5011994;28;19948;-67
2022/05/28 12:56:22;;;;;;;;;;;16.00;99.90;;;;;;5012001;28;19918;-67
2022/05/28 12:58:48;;;;;;;;;;;16.00;99.90;;;;;;5011529;28;19928;-67
2022/05/28 13:01:19;;;;;;;;;;;16.10;99.90;;;;;;5011710;28;19918;-67
2022/05/28 13:03:45;;;;;;;;;;;16.30;99.90;;;;;;5011904;28;20000;-67
2022/05/28 13:06:12;;;;;;;;;;;16.50;99.90;;;;;;5011737;28;20020;-66
2022/05/28 13:08:42;;;;;;;;;;;16.50;99.90;;;;;;5011414;28;19928;-66
2022/05/28 13:11:22;;;;;;;;;;;16.60;99.90;;;;;;5011563;28;20390;-67
2022/05/28 13:13:54;;;;;;;;;;;16.40;99.90;;;;;;5011620;28;19921;-67
2022/05/28 13:16:39;;;;;;;;;;;16.50;99.90;;;;;;5011579;28;19928;-66
2022/05/28 13:19:07;;;;;;;;;;;16.60;99.90;;;;;;5011132;28;20484;-67
2022/05/28 13:21:51;;;;;;;;;;;16.70;99.90;;;;;;5052980;28;20494;-67
2022/05/28 13:24:35;;;;;;;;;;;16.50;99.90;;;;;;5093896;28;19969;-67
2022/05/28 13:27:16;;;;;;;;;;;16.40;99.90;;;;;;5093840;28;19962;-67
2022/05/28 13:29:50;;;;;;;;;;;16.20;99.90;;;;;;5093381;28;20300;-67
2022/05/28 13:32:18;;;;;;;;;;;16.10;99.90;;;;;;5093512;28;19963;-70
2022/05/28 13:34:43;;;;;;;;;;;16.10;99.90;;;;;;5093863;28;19916;-67
2022/05/28 13:37:17;;;;;;;;;;;16.10;99.90;;;;;;5092603;28;20429;-67
2022/05/28 13:39:44;;;;;;;;;;;16.00;99.90;;;;;;5093226;28;19926;-67
2022/05/28 13:42:11;;;;;;;;;;;15.90;99.90;;;;;;5093510;28;19915;-67
2022/05/28 13:44:37;;;;;;;;;;;15.80;99.90;;;;;;5093519;28;19916;-67
2022/05/28 13:47:04;;;;;;;;;;;15.70;99.90;;;;;;5093286;28;19923;-67
2022/05/28 13:49:31;;;;;;;;;;;15.60;99.90;;;;;;5092788;28;19969;-67
2022/05/28 13:51:58;;;;;;;;;;;15.60;99.90;;;;;;5092610;28;20391;-67
2022/05/28 13:54:23;;;;;;;;;;;15.60;99.90;;;;;;5093447;28;19919;-67
2022/05/28 13:56:54;;;;;;;;;;;15.60;99.90;;;;;;5093250;28;19939;-67
2022/05/28 13:59:31;;;;;;;;;;;15.60;99.90;;;;;;5092606;28;20307;-67
2022/05/28 14:01:57;;;;;;;;;;;15.50;99.90;;;;;;5093302;28;20287;-67
2022/05/28 14:04:25;;;;;;;;;;;15.60;99.90;;;;;;5093169;28;19916;-67
2022/05/28 14:06:53;;;;;;;;;;;15.50;99.90;;;;;;5093113;28;19915;-67
2022/05/28 14:09:19;;;;;;;;;;;15.50;99.90;;;;;;5092620;28;19975;-67
2022/05/28 14:11:46;;;;;;;;;;;15.70;99.90;;;;;;5092804;28;19986;-67
2022/05/28 14:14:19;;;;;;;;;;;15.80;99.90;;;;;;5092809;28;19961;-67
2022/05/28 14:16:46;;;;;;;;;;;15.70;99.90;;;;;;5092985;28;19973;-67
2022/05/28 14:19:28;;;;;;;;;;;15.70;99.90;;;;;;5092548;28;19924;-67
2022/05/28 14:22:01;;;;;;;;;;;15.70;99.90;;;;;;5092753;28;20319;-67
2022/05/28 14:24:34;;;;;;;;;;;15.70;99.90;;;;;;5092663;28;20380;-67
2022/05/28 14:27:01;;;;;;;;;;;15.30;99.90;;;;;;5092717;28;19917;-67
2022/05/28 14:29:32;;;;;;;;;;;15.50;99.90;;;;;;5092419;28;20341;-67
2022/05/28 14:31:59;;;;;;;;;;;15.60;99.90;;;;;;5092542;28;19916;-67